Time;durP1;ratioP1;P1;durP2;ratioP2;P2;SDS_P1;SDS_P2;PMS_P1;PMS_P2;Temp;Humidity;BMP_temperature;BMP_pressure;BME280_temperature;BME280_humidity;BME280_pressure;Samples;Min_cycle;Max_cycle;Signal;HPM_P1;HPM_P2
2022/10/03 00:00:11;;;;;;;4.45;3.95;;;;;;;;;;4989356;28;20816;-66
2022/10/03 00:03:19;;;;;;;6.75;4.18;;;;;;;;;;4990971;28;20439;-67
2022/10/03 00:05:48;;;;;;;8.02;4.68;;;;;;;;;;4910775;29;20051;-66
2022/10/03 00:08:17;;;;;;;5.25;4.28;;;;;;;;;;4961530;28;20060;-67
2022/10/03 00:11:09;;;;;;;7.70;4.55;;;;;;;;;;4981706;28;20140;-67
2022/10/03 00:13:38;;;;;;;6.78;3.92;;;;;;;;;;4981599;28;20105;-67
2022/10/03 00:16:19;;;;;;;7.20;4.60;;;;;;;;;;4987663;28;20046;-67
2022/10/03 00:19:10;;;;;;;5.85;4.85;;;;;;;;;;4983568;28;20045;-67
2022/10/03 00:21:59;;;;;;;9.80;4.93;;;;;;;;;;4981451;28;20137;-67
2022/10/03 00:24:33;;;;;;;7.53;5.03;;;;;;;;;;4980245;28;20089;-67
2022/10/03 00:27:08;;;;;;;5.30;4.55;;;;;;;;;;4981229;28;20050;-67
2022/10/03 00:29:52;;;;;;;6.28;4.50;;;;;;;;;;4988477;28;20054;-66
2022/10/03 00:32:25;;;;;;;9.18;5.07;;;;;;;;;;4970791;28;20104;-66
2022/10/03 00:35:34;;;;;;;8.25;5.05;;;;;;;;;;4984041;28;20126;-67
2022/10/03 00:38:00;;;;;;;6.55;5.03;;;;;;;;;;4995879;28;20053;-67
2022/10/03 00:40:28;;;;;;;9.80;5.10;;;;;;;;;;4982842;28;20069;-67
2022/10/03 00:43:12;;;;;;;11.02;5.47;;;;;;;;;;4990864;28;20526;-67
2022/10/03 00:46:04;;;;;;;10.20;5.55;;;;;;;;;;4992373;28;20064;-68
2022/10/03 00:49:15;;;;;;;9.32;5.07;;;;;;;;;;4942174;28;20494;-67
2022/10/03 00:52:09;;;;;;;7.78;5.05;;;;;;;;;;4993381;28;20057;-67
2022/10/03 00:54:51;;;;;;;5.57;4.72;;;;;;;;;;4975806;28;20045;-67
2022/10/03 00:57:49;;;;;;;9.85;4.85;;;;;;;;;;4992661;28;20499;-66
2022/10/03 01:00:20;;;;;;;9.10;5.10;;;;;;;;;;4974074;28;20133;-66
2022/10/03 01:02:51;;;;;;;9.23;5.28;;;;;;;;;;4990605;28;20046;-67
2022/10/03 01:05:19;;;;;;;9.63;5.97;;;;;;;;;;4989195;28;20061;-67
2022/10/03 01:08:09;;;;;;;8.65;5.03;;;;;;;;;;4991500;28;20293;-69
2022/10/03 01:10:50;;;;;;;11.93;5.38;;;;;;;;;;4993204;28;20065;-67
2022/10/03 01:13:31;;;;;;;8.40;5.80;;;;;;;;;;4986999;28;20054;-66
2022/10/03 01:16:36;;;;;;;12.02;5.88;;;;;;;;;;4990112;28;20038;-67
2022/10/03 01:19:20;;;;;;;10.27;5.97;;;;;;;;;;4993067;28;20046;-67
2022/10/03 01:22:01;;;;;;;9.65;6.30;;;;;;;;;;4982556;28;20046;-67
2022/10/03 01:24:44;;;;;;;9.43;6.40;;;;;;;;;;4982171;28;20054;-67
2022/10/03 01:27:14;;;;;;;10.75;6.68;;;;;;;;;;4982333;28;20419;-68
2022/10/03 01:32:55;;;;;;;10.18;6.43;;;;;;;;;;4974675;28;20050;-67
2022/10/03 01:35:23;;;;;;;9.93;6.50;;;;;;;;;;4987509;28;20059;-66
2022/10/03 01:38:11;;;;;;;12.27;6.75;;;;;;;;;;4994149;28;20034;-66
2022/10/03 01:41:04;;;;;;;12.93;6.93;;;;;;;;;;5000856;28;20045;-67
2022/10/03 01:43:54;;;;;;;13.63;8.25;;;;;;;;;;4953978;28;20098;-67
2022/10/03 01:46:45;;;;;;;17.67;8.23;;;;;;;;;;4954675;28;20054;-67
2022/10/03 01:49:10;;;;;;;12.80;7.75;;;;;;;;;;4996494;28;20113;-67
2022/10/03 01:51:53;;;;;;;16.10;8.90;;;;;;;;;;4995204;28;20050;-67
2022/10/03 01:54:45;;;;;;;12.95;7.53;;;;;;;;;;4976100;28;20088;-67
2022/10/03 01:57:34;;;;;;;15.60;7.20;;;;;;;;;;4992002;28;20518;-67
2022/10/03 02:00:19;;;;;;;13.88;7.57;;;;;;;;;;4987483;28;20046;-70
2022/10/03 02:02:55;;;;;;;16.17;7.15;;;;;;;;;;4991058;28;20054;-67
2022/10/03 02:06:00;;;;;;;14.80;7.70;;;;;;;;;;4992095;28;20058;-67
2022/10/03 02:08:44;;;;;;;11.43;7.35;;;;;;;;;;4933406;28;20046;-67
2022/10/03 02:11:21;;;;;;;11.40;7.45;;;;;;;;;;4997185;28;20045;-67
2022/10/03 02:13:58;;;;;;;15.60;7.63;;;;;;;;;;4993326;28;20103;-66
2022/10/03 02:16:42;;;;;;;9.77;6.72;;;;;;;;;;4988601;28;20054;-68
2022/10/03 02:19:12;;;;;;;11.77;7.75;;;;;;;;;;4988005;28;20450;-66
2022/10/03 02:21:50;;;;;;;14.80;8.07;;;;;;;;;;4990353;28;20125;-67
2022/10/03 02:24:28;;;;;;;15.75;8.05;;;;;;;;;;4981736;28;20050;-66
2022/10/03 02:26:59;;;;;;;12.93;7.10;;;;;;;;;;4993879;28;20141;-67
2022/10/03 02:29:53;;;;;;;13.27;8.03;;;;;;;;;;4991576;28;20050;-69
2022/10/03 02:32:30;;;;;;;14.50;8.10;;;;;;;;;;4974440;28;20546;-68
2022/10/03 02:35:20;;;;;;;13.65;7.60;;;;;;;;;;4994469;28;20092;-67
2022/10/03 02:38:10;;;;;;;13.55;7.93;;;;;;;;;;4992106;28;20407;-67
2022/10/03 02:41:05;;;;;;;17.05;8.23;;;;;;;;;;5001288;28;20402;-67
2022/10/03 02:44:09;;;;;;;17.92;7.50;;;;;;;;;;4988417;28;20049;-67
2022/10/03 02:47:13;;;;;;;11.43;7.18;;;;;;;;;;4977816;28;20136;-67
2022/10/03 02:49:57;;;;;;;12.02;7.20;;;;;;;;;;4930944;28;20042;-67
2022/10/03 02:52:41;;;;;;;15.27;7.55;;;;;;;;;;4980953;28;20065;-67
2022/10/03 02:55:26;;;;;;;16.05;7.63;;;;;;;;;;4992236;28;20046;-67
2022/10/03 02:58:31;;;;;;;13.90;7.88;;;;;;;;;;4990707;28;20509;-67
2022/10/03 03:01:34;;;;;;;14.60;7.85;;;;;;;;;;4990065;28;20070;-68
2022/10/03 03:04:08;;;;;;;20.98;9.15;;;;;;;;;;4993668;28;20115;-70
2022/10/03 03:07:07;;;;;;;19.52;8.90;;;;;;;;;;4985240;28;20042;-67
2022/10/03 03:09:35;;;;;;;22.50;8.80;;;;;;;;;;4993678;28;20421;-67
2022/10/03 03:12:06;;;;;;;14.48;8.65;;;;;;;;;;4982128;28;20046;-68
2022/10/03 03:15:10;;;;;;;19.87;8.80;;;;;;;;;;4993895;28;20124;-68
2022/10/03 03:18:05;;;;;;;25.63;9.55;;;;;;;;;;4898230;29;20056;-69
2022/10/03 03:21:02;;;;;;;17.75;9.10;;;;;;;;;;4888725;29;20056;-68
2022/10/03 03:23:37;;;;;;;17.98;8.50;;;;;;;;;;4977923;28;20081;-68
2022/10/03 03:26:03;;;;;;;15.32;8.00;;;;;;;;;;4991081;28;20052;-69
2022/10/03 03:28:31;;;;;;;16.08;7.95;;;;;;;;;;4976777;28;20134;-68
2022/10/03 03:31:13;;;;;;;21.13;8.57;;;;;;;;;;4998194;28;20057;-68
2022/10/03 03:33:54;;;;;;;13.93;8.20;;;;;;;;;;4988769;28;20081;-68
2022/10/03 03:36:31;;;;;;;16.58;8.00;;;;;;;;;;4964314;28;20053;-68
2022/10/03 03:39:15;;;;;;;20.38;8.13;;;;;;;;;;4984170;28;20042;-68
2022/10/03 03:42:05;;;;;;;14.13;7.25;;;;;;;;;;4983697;28;20169;-69
2022/10/03 03:44:46;;;;;;;18.40;7.88;;;;;;;;;;4972644;28;20052;-69
2022/10/03 03:47:25;;;;;;;13.13;7.22;;;;;;;;;;4991096;28;20074;-67
2022/10/03 03:50:13;;;;;;;14.68;7.68;;;;;;;;;;4990963;28;20075;-68
2022/10/03 03:52:57;;;;;;;17.00;7.53;;;;;;;;;;4993368;28;20057;-67
2022/10/03 03:55:26;;;;;;;18.13;8.07;;;;;;;;;;4988999;28;20458;-68
2022/10/03 03:58:08;;;;;;;12.02;7.18;;;;;;;;;;4990916;28;20050;-68
2022/10/03 04:00:58;;;;;;;16.63;8.48;;;;;;;;;;4982135;28;20430;-68
2022/10/03 04:03:44;;;;;;;17.95;7.90;;;;;;;;;;4997650;28;20088;-68
2022/10/03 04:06:36;;;;;;;13.48;7.88;;;;;;;;;;4981615;28;20469;-68
2022/10/03 04:09:27;;;;;;;13.82;7.70;;;;;;;;;;4975093;28;20161;-68
2022/10/03 04:12:08;;;;;;;14.25;7.82;;;;;;;;;;4986988;28;20044;-68
2022/10/03 04:15:29;;;;;;;21.98;8.93;;;;;;;;;;4990279;28;20121;-68
2022/10/03 04:21:33;;;;;;;13.98;8.05;;;;;;;;;;4992258;28;20125;-67
2022/10/03 04:24:08;;;;;;;16.20;9.20;;;;;;;;;;4981763;28;20450;-68
2022/10/03 04:26:51;;;;;;;18.85;8.93;;;;;;;;;;4990453;28;20380;-69
2022/10/03 04:29:52;;;;;;;20.98;9.95;;;;;;;;;;4981638;28;20077;-69
2022/10/03 04:32:56;;;;;;;27.90;12.02;;;;;;;;;;4978827;28;20061;-68
2022/10/03 04:35:42;;;;;;;27.10;11.18;;;;;;;;;;4961159;28;20065;-67
2022/10/03 04:38:26;;;;;;;31.77;12.55;;;;;;;;;;4991082;28;20187;-68
2022/10/03 04:40:54;;;;;;;23.67;11.27;;;;;;;;;;4984236;28;20053;-68
2022/10/03 04:43:33;;;;;;;25.65;12.05;;;;;;;;;;4981759;28;20053;-68
2022/10/03 04:46:24;;;;;;;26.98;11.82;;;;;;;;;;4987997;28;20177;-68
2022/10/03 04:49:22;;;;;;;21.52;10.85;;;;;;;;;;4997217;28;20132;-68
2022/10/03 04:51:52;;;;;;;25.75;12.55;;;;;;;;;;4983139;28;20496;-68
2022/10/03 04:54:28;;;;;;;24.27;12.30;;;;;;;;;;4984073;28;20922;-68
2022/10/03 04:57:23;;;;;;;26.25;12.35;;;;;;;;;;4986385;28;20049;-68
2022/10/03 05:00:00;;;;;;;25.75;12.52;;;;;;;;;;4927316;28;21289;-68
2022/10/03 05:02:47;;;;;;;26.67;12.35;;;;;;;;;;4984157;28;20536;-68
2022/10/03 05:05:26;;;;;;;22.10;11.80;;;;;;;;;;4986987;28;20056;-68
2022/10/03 05:08:13;;;;;;;26.58;12.98;;;;;;;;;;4967921;28;20133;-68
2022/10/03 05:10:47;;;;;;;23.60;11.55;;;;;;;;;;4986999;28;20411;-68
2022/10/03 05:13:44;;;;;;;23.23;10.95;;;;;;;;;;4986799;28;20065;-68
2022/10/03 05:16:12;;;;;;;22.33;10.93;;;;;;;;;;4993846;28;20101;-71
2022/10/03 05:18:53;;;;;;;24.45;11.30;;;;;;;;;;4976652;28;20076;-71
2022/10/03 05:21:18;;;;;;;26.58;11.65;;;;;;;;;;4985195;28;20042;-72
2022/10/03 05:23:44;;;;;;;21.23;11.40;;;;;;;;;;4995362;28;20057;-71
2022/10/03 05:26:53;;;;;;;20.73;11.27;;;;;;;;;;4990053;28;20049;-71
2022/10/03 05:29:38;;;;;;;24.42;11.63;;;;;;;;;;4997092;28;20166;-71
2022/10/03 05:32:26;;;;;;;25.73;11.98;;;;;;;;;;4993991;28;20050;-71
2022/10/03 05:35:13;;;;;;;22.20;12.05;;;;;;;;;;4992512;28;20475;-71
2022/10/03 05:37:54;;;;;;;27.83;12.77;;;;;;;;;;4997348;28;20049;-71
2022/10/03 05:40:34;;;;;;;30.00;11.50;;;;;;;;;;4980454;28;20060;-71
2022/10/03 05:43:06;;;;;;;24.50;11.05;;;;;;;;;;4985981;28;20045;-71
2022/10/03 05:45:43;;;;;;;;;;;;;;;;;;4986404;28;20056;-72
2022/10/03 05:48:17;;;;;;;22.75;10.50;;;;;;;;;;4986789;28;20283;-72
2022/10/03 05:50:56;;;;;;;22.05;10.73;;;;;;;;;;4987030;28;20050;-71
2022/10/03 05:53:49;;;;;;;22.55;10.65;;;;;;;;;;4985544;28;20054;-72
2022/10/03 05:56:47;;;;;;;20.63;10.48;;;;;;;;;;4985466;28;20046;-71
2022/10/03 05:59:24;;;;;;;23.38;10.50;;;;;;;;;;4949228;28;20210;-72
2022/10/03 06:01:59;;;;;;;19.70;11.52;;;;;;;;;;4985357;28;20462;-71
2022/10/03 06:04:52;;;;;;;20.13;10.55;;;;;;;;;;4984519;28;20066;-71
2022/10/03 06:07:26;;;;;;;19.83;10.25;;;;;;;;;;4987180;28;20141;-72
2022/10/03 06:10:33;;;;;;;24.88;11.05;;;;;;;;;;4989000;28;20092;-71
2022/10/03 06:13:18;;;;;;;18.45;10.20;;;;;;;;;;4982480;28;20136;-71
2022/10/03 06:16:05;;;;;;;19.23;9.95;;;;;;;;;;4983234;28;20039;-70
2022/10/03 06:18:49;;;;;;;17.75;9.55;;;;;;;;;;4971270;28;20406;-70
2022/10/03 06:21:31;;;;;;;20.60;9.27;;;;;;;;;;4985147;28;20045;-70
2022/10/03 06:24:15;;;;;;;13.75;8.95;;;;;;;;;;4987357;28;20105;-69
2022/10/03 06:27:11;;;;;;;18.40;8.48;;;;;;;;;;4990199;28;20327;-70
2022/10/03 06:30:04;;;;;;;15.27;9.80;;;;;;;;;;4983002;28;20054;-71
2022/10/03 06:32:53;;;;;;;14.95;8.40;;;;;;;;;;4956491;28;20112;-71
2022/10/03 06:35:47;;;;;;;15.85;8.95;;;;;;;;;;4969196;28;20053;-71
2022/10/03 06:38:50;;;;;;;16.73;8.70;;;;;;;;;;4985005;28;20402;-70
2022/10/03 06:41:53;;;;;;;17.10;8.27;;;;;;;;;;4982160;28;20039;-71
2022/10/03 06:44:33;;;;;;;11.20;7.07;;;;;;;;;;4960942;28;20061;-70
2022/10/03 06:47:21;;;;;;;12.25;7.55;;;;;;;;;;4980526;28;20507;-70
2022/10/03 06:50:17;;;;;;;11.75;7.30;;;;;;;;;;4975466;28;20515;-73
2022/10/03 06:52:55;;;;;;;12.45;6.88;;;;;;;;;;4993268;28;20407;-70
2022/10/03 06:55:39;;;;;;;15.55;6.70;;;;;;;;;;4981160;28;20104;-71
2022/10/03 06:58:43;;;;;;;13.27;6.28;;;;;;;;;;4992208;28;20495;-71
2022/10/03 07:01:40;;;;;;;12.07;6.05;;;;;;;;;;4978375;28;20054;-71
2022/10/03 07:04:36;;;;;;;13.23;7.00;;;;;;;;;;4989845;28;20050;-72
2022/10/03 07:07:26;;;;;;;11.65;6.25;;;;;;;;;;4973085;28;20058;-71
2022/10/03 07:10:23;;;;;;;13.70;6.63;;;;;;;;;;4972112;28;20039;-70
2022/10/03 07:13:07;;;;;;;14.40;6.95;;;;;;;;;;4963675;28;20042;-71
2022/10/03 07:16:11;;;;;;;8.90;5.93;;;;;;;;;;4977807;28;20438;-71
2022/10/03 07:19:07;;;;;;;10.73;6.05;;;;;;;;;;4975664;28;20046;-71
2022/10/03 07:22:09;;;;;;;12.73;5.95;;;;;;;;;;4989817;28;20053;-71
2022/10/03 07:24:43;;;;;;;11.60;5.57;;;;;;;;;;4976835;28;20101;-71
2022/10/03 07:27:23;;;;;;;10.45;4.78;;;;;;;;;;4995737;28;20085;-71
2022/10/03 07:30:13;;;;;;;7.82;5.10;;;;;;;;;;4991158;28;20545;-71
2022/10/03 07:33:16;;;;;;;7.22;4.60;;;;;;;;;;4992909;28;20503;-71
2022/10/03 07:39:15;;;;;;;8.95;4.93;;;;;;;;;;4952169;28;20046;-72
2022/10/03 07:42:11;;;;;;;9.38;4.75;;;;;;;;;;4983024;28;20042;-72
2022/10/03 07:44:49;;;;;;;9.07;4.85;;;;;;;;;;4954095;28;20395;-72
2022/10/03 07:47:33;;;;;;;7.43;4.75;;;;;;;;;;4992639;28;20050;-72
2022/10/03 07:50:05;;;;;;;9.55;4.82;;;;;;;;;;4987900;28;20042;-72
2022/10/03 07:52:52;;;;;;;11.02;4.60;;;;;;;;;;4980804;28;20062;-72
2022/10/03 07:55:36;;;;;;;6.03;3.50;;;;;;;;;;4982132;28;21085;-72
2022/10/03 07:58:18;;;;;;;7.38;3.70;;;;;;;;;;4993335;28;20050;-72
2022/10/03 08:01:20;;;;;;;7.55;3.60;;;;;;;;;;4982619;28;20042;-72
2022/10/03 08:04:14;;;;;;;8.13;3.97;;;;;;;;;;4982381;28;20415;-72
2022/10/03 08:06:54;;;;;;;8.30;3.72;;;;;;;;;;4966978;28;20065;-71
2022/10/03 08:09:38;;;;;;;5.47;3.90;;;;;;;;;;4989200;28;20053;-73
2022/10/03 08:12:28;;;;;;;9.43;3.58;;;;;;;;;;4988404;28;20054;-72
2022/10/03 08:15:10;;;;;;;9.05;4.03;;;;;;;;;;4986079;28;20050;-71
2022/10/03 08:17:39;;;;;;;7.40;3.92;;;;;;;;;;5001200;28;20133;-72
2022/10/03 08:20:31;;;;;;;7.25;4.22;;;;;;;;;;4989155;28;20050;-70
2022/10/03 08:23:35;;;;;;;6.55;3.92;;;;;;;;;;4991950;28;20061;-70
2022/10/03 08:26:19;;;;;;;7.35;4.00;;;;;;;;;;4989662;28;20099;-73
2022/10/03 08:29:07;;;;;;;9.85;4.25;;;;;;;;;;4972240;28;20050;-73
2022/10/03 08:31:58;;;;;;;10.57;4.45;;;;;;;;;;4982004;28;20046;-72
2022/10/03 08:35:01;;;;;;;8.93;3.90;;;;;;;;;;4980920;28;20064;-73
2022/10/03 08:37:58;;;;;;;7.28;3.90;;;;;;;;;;4990247;28;20450;-73
2022/10/03 08:40:44;;;;;;;9.68;4.10;;;;;;;;;;4956769;28;20050;-73
2022/10/03 08:43:47;;;;;;;9.70;4.97;;;;;;;;;;4983009;28;20569;-72
2022/10/03 08:46:53;;;;;;;7.75;4.90;;;;;;;;;;4977437;28;20050;-72
2022/10/03 08:49:56;;;;;;;9.80;4.70;;;;;;;;;;4978663;28;20050;-72
2022/10/03 08:52:24;;;;;;;9.63;4.82;;;;;;;;;;4948868;28;20073;-72
2022/10/03 08:54:52;;;;;;;8.50;4.70;;;;;;;;;;4981339;28;20876;-72
2022/10/03 08:57:40;;;;;;;10.02;4.50;;;;;;;;;;4983285;28;20104;-73
2022/10/03 09:00:31;;;;;;;10.38;4.10;;;;;;;;;;4981633;28;20053;-73
2022/10/03 09:03:34;;;;;;;8.50;4.20;;;;;;;;;;4987529;28;20514;-73
2022/10/03 09:06:44;;;;;;;14.88;4.03;;;;;;;;;;4980606;28;20479;-73
2022/10/03 09:09:34;;;;;;;10.50;3.80;;;;;;;;;;4965914;28;20054;-73
2022/10/03 09:12:55;;;;;;;6.68;3.85;;;;;;;;;;4987104;28;20402;-73
2022/10/03 09:15:29;;;;;;;7.40;3.75;;;;;;;;;;4898739;29;20158;-73
2022/10/03 09:18:15;;;;;;;7.88;3.38;;;;;;;;;;4979616;28;20584;-74
2022/10/03 09:21:05;;;;;;;6.53;3.28;;;;;;;;;;4977283;28;21104;-73
2022/10/03 09:23:40;;;;;;;7.47;2.90;;;;;;;;;;4980630;28;20038;-73
2022/10/03 09:26:11;;;;;;;5.45;2.75;;;;;;;;;;4978781;28;20054;-73
2022/10/03 09:29:10;;;;;;;7.40;3.88;;;;;;;;;;4980957;28;20120;-73
2022/10/03 09:31:57;;;;;;;6.47;3.03;;;;;;;;;;4982037;28;20045;-74
2022/10/03 09:34:51;;;;;;;5.40;2.70;;;;;;;;;;4962229;28;20046;-73
2022/10/03 09:37:35;;;;;;;4.75;2.83;;;;;;;;;;4982955;28;20042;-73
2022/10/03 09:40:27;;;;;;;10.38;3.03;;;;;;;;;;4989651;28;20075;-74
2022/10/03 09:43:01;;;;;;;4.45;2.78;;;;;;;;;;4993967;28;20042;-73
2022/10/03 09:46:08;;;;;;;9.45;3.78;;;;;;;;;;4979619;28;20057;-74
2022/10/03 09:48:42;;;;;;;6.55;3.70;;;;;;;;;;4885211;29;20091;-73
2022/10/03 09:51:24;;;;;;;9.50;4.32;;;;;;;;;;4967968;28;20058;-73
2022/10/03 09:54:01;;;;;;;;;;;;;;;;;;4988139;28;20621;-73
2022/10/03 09:56:52;;;;;;;8.50;3.75;;;;;;;;;;4981481;28;19975;-74
2022/10/03 09:59:36;;;;;;;6.57;3.88;;;;;;;;;;4983469;28;20049;-73
2022/10/03 10:02:13;;;;;;;7.43;3.50;;;;;;;;;;4984160;28;20065;-74
2022/10/03 10:05:01;;;;;;;5.03;3.15;;;;;;;;;;4985507;28;20050;-73
2022/10/03 10:07:26;;;;;;;5.88;3.22;;;;;;;;;;4992243;28;20054;-73
2022/10/03 10:10:22;;;;;;;7.00;2.95;;;;;;;;;;4988382;28;20053;-74
2022/10/03 10:13:16;;;;;;;6.97;3.55;;;;;;;;;;4985673;28;20052;-74
2022/10/03 10:16:07;;;;;;;7.32;3.60;;;;;;;;;;4983831;28;20046;-73
2022/10/03 10:19:11;;;;;;;8.90;3.03;;;;;;;;;;4967567;28;20091;-74
2022/10/03 10:22:07;;;;;;;4.45;3.13;;;;;;;;;;4983950;28;20117;-74
2022/10/03 10:25:08;;;;;;;8.77;2.92;;;;;;;;;;4983871;28;20049;-73
2022/10/03 10:27:45;;;;;;;5.43;3.17;;;;;;;;;;4985390;28;20098;-73
2022/10/03 10:30:20;;;;;;;4.68;3.00;;;;;;;;;;4988749;28;20050;-74
2022/10/03 10:33:13;;;;;;;7.25;2.50;;;;;;;;;;4994594;28;20093;-74
2022/10/03 10:36:05;;;;;;;7.30;2.75;;;;;;;;;;4984513;28;20141;-74
2022/10/03 10:38:49;;;;;;;5.63;2.60;;;;;;;;;;4953214;28;20091;-73
2022/10/03 10:41:33;;;;;;;5.65;2.97;;;;;;;;;;4987649;28;20050;-73
2022/10/03 10:44:36;;;;;;;4.68;2.47;;;;;;;;;;4984172;28;20045;-73
2022/10/03 10:47:36;;;;;;;5.00;2.47;;;;;;;;;;4986946;28;20046;-73
2022/10/03 10:50:17;;;;;;;4.05;2.42;;;;;;;;;;4965458;28;20145;-74
2022/10/03 10:53:12;;;;;;;4.72;2.83;;;;;;;;;;4981472;28;20607;-73
2022/10/03 10:55:56;;;;;;;6.57;2.60;;;;;;;;;;4930097;28;20091;-73
2022/10/03 10:58:43;;;;;;;5.20;2.53;;;;;;;;;;4920565;28;20280;-74
2022/10/03 11:01:46;;;;;;;4.97;2.38;;;;;;;;;;4996063;28;20065;-74
2022/10/03 11:04:36;;;;;;;4.97;2.50;;;;;;;;;;4985608;28;20061;-73
2022/10/03 11:07:26;;;;;;;3.78;2.45;;;;;;;;;;4975702;28;20057;-73
2022/10/03 11:10:15;;;;;;;4.68;2.70;;;;;;;;;;4971224;28;20074;-74
2022/10/03 11:13:09;;;;;;;4.82;2.63;;;;;;;;;;4981136;28;20492;-73
2022/10/03 11:16:05;;;;;;;5.13;2.33;;;;;;;;;;4983057;28;20054;-73
2022/10/03 11:18:58;;;;;;;8.57;2.67;;;;;;;;;;4980921;28;20499;-73
2022/10/03 11:21:48;;;;;;;5.72;2.42;;;;;;;;;;4976708;28;20057;-76
2022/10/03 11:24:32;;;;;;;4.30;2.40;;;;;;;;;;4982375;28;20050;-74
2022/10/03 11:27:13;;;;;;;4.88;2.50;;;;;;;;;;4983307;28;20113;-75
2022/10/03 11:30:15;;;;;;;5.03;2.20;;;;;;;;;;4983992;28;20058;-75
2022/10/03 11:33:20;;;;;;;4.53;2.20;;;;;;;;;;4971014;28;20053;-74
2022/10/03 11:36:28;;;;;;;4.90;2.20;;;;;;;;;;4989447;28;20054;-74
2022/10/03 11:38:54;;;;;;;7.03;2.67;;;;;;;;;;4913475;28;20439;-74
2022/10/03 11:41:46;;;;;;;6.30;2.50;;;;;;;;;;4925423;28;21073;-74
2022/10/03 11:44:16;;;;;;;4.35;2.17;;;;;;;;;;4967250;28;20569;-74
2022/10/03 11:46:56;;;;;;;3.75;2.10;;;;;;;;;;4982774;28;20050;-74
2022/10/03 11:49:53;;;;;;;6.20;2.00;;;;;;;;;;4967746;28;20111;-74
2022/10/03 11:52:57;;;;;;;9.23;2.40;;;;;;;;;;4982459;28;20062;-73
2022/10/03 11:55:31;;;;;;;2.63;2.00;;;;;;;;;;4982974;28;20116;-75
2022/10/03 11:58:16;;;;;;;3.65;2.00;;;;;;;;;;4965198;28;20136;-74
2022/10/03 12:00:44;;;;;;;4.82;1.85;;;;;;;;;;4978909;28;20030;-74
2022/10/03 12:03:19;;;;;;;3.30;1.95;;;;;;;;;;4986413;28;20082;-74
2022/10/03 12:09:18;;;;;;;5.25;1.95;;;;;;;;;;4967227;28;20177;-74
2022/10/03 12:12:09;;;;;;;4.07;1.98;;;;;;;;;;4981936;28;20053;-74
2022/10/03 12:14:49;;;;;;;3.53;1.98;;;;;;;;;;4980871;28;20073;-74
2022/10/03 12:17:15;;;;;;;3.15;2.33;;;;;;;;;;4982923;28;20050;-74
2022/10/03 12:19:50;;;;;;;7.28;2.25;;;;;;;;;;4982292;28;20571;-73
2022/10/03 12:22:40;;;;;;;6.18;2.35;;;;;;;;;;4982564;28;20050;-74
2022/10/03 12:25:22;;;;;;;4.65;2.03;;;;;;;;;;4986223;28;20050;-74
2022/10/03 12:27:51;;;;;;;;;;;;;;;;;;4964391;28;20437;-75
2022/10/03 12:30:18;;;;;;;7.28;2.30;;;;;;;;;;4981956;28;19922;-74
2022/10/03 12:33:11;;;;;;;7.63;2.95;;;;;;;;;;4989197;28;20113;-74
2022/10/03 12:36:02;;;;;;;4.68;2.10;;;;;;;;;;4980311;28;20054;-74
2022/10/03 12:38:49;;;;;;;6.35;2.20;;;;;;;;;;4964261;28;20045;-73
2022/10/03 12:41:17;;;;;;;3.28;2.28;;;;;;;;;;4984000;28;20077;-73
2022/10/03 12:44:37;;;;;;;4.85;2.15;;;;;;;;;;4981652;28;20049;-75
2022/10/03 12:47:14;;;;;;;3.72;2.10;;;;;;;;;;4894384;29;20122;-74
2022/10/03 12:50:22;;;;;;;7.40;2.33;;;;;;;;;;4962011;28;20506;-75
2022/10/03 12:53:11;;;;;;;3.88;2.20;;;;;;;;;;4940489;28;20047;-75
2022/10/03 12:55:39;;;;;;;7.10;2.17;;;;;;;;;;4982397;28;20470;-74
2022/10/03 12:58:11;;;;;;;2.58;1.70;;;;;;;;;;4983508;28;20116;-73
2022/10/03 13:01:14;;;;;;;3.83;1.77;;;;;;;;;;4984738;28;20049;-74
2022/10/03 13:03:50;;;;;;;4.70;2.00;;;;;;;;;;4963499;28;20101;-74
2022/10/03 13:06:27;;;;;;;4.65;1.80;;;;;;;;;;4982813;28;20486;-73
2022/10/03 13:09:07;;;;;;;4.25;1.63;;;;;;;;;;4971214;28;20613;-74
2022/10/03 13:12:15;;;;;;;2.63;1.80;;;;;;;;;;4983758;28;20043;-75
2022/10/03 13:14:47;;;;;;;10.48;2.08;;;;;;;;;;4969304;28;20196;-75
2022/10/03 13:17:19;;;;;;;;;;;;;;;;;;4986284;28;20053;-74
2022/10/03 13:19:52;;;;;;;9.60;1.92;;;;;;;;;;4970741;28;19921;-74
2022/10/03 13:23:14;;;;;;;5.07;1.48;;;;;;;;;;4993734;28;20517;-75
2022/10/03 13:25:54;;;;;;;3.28;1.92;;;;;;;;;;4967735;28;20054;-75
2022/10/03 13:28:33;;;;;;;4.65;2.00;;;;;;;;;;4981839;28;20065;-74
2022/10/03 13:31:21;;;;;;;3.72;1.90;;;;;;;;;;4984393;28;20054;-75
2022/10/03 13:33:51;;;;;;;6.50;2.22;;;;;;;;;;4978300;28;20096;-74
2022/10/03 13:36:23;;;;;;;6.82;2.05;;;;;;;;;;4984660;28;20053;-75
2022/10/03 13:38:58;;;;;;;2.95;1.85;;;;;;;;;;4994231;28;20112;-74
2022/10/03 13:41:29;;;;;;;4.90;2.28;;;;;;;;;;4990449;28;20053;-74
2022/10/03 13:44:01;;;;;;;4.75;2.45;;;;;;;;;;4985169;28;20129;-75
2022/10/03 13:46:52;;;;;;;7.07;2.20;;;;;;;;;;4979544;28;20061;-75
2022/10/03 13:49:33;;;;;;;5.70;2.25;;;;;;;;;;4987675;28;20470;-75
2022/10/03 13:52:17;;;;;;;3.58;1.60;;;;;;;;;;4968445;28;20049;-75
2022/10/03 13:55:08;;;;;;;5.43;2.17;;;;;;;;;;4981698;28;20068;-73
2022/10/03 13:57:41;;;;;;;6.47;2.90;;;;;;;;;;5002463;28;20045;-74
2022/10/03 14:00:18;;;;;;;6.50;2.28;;;;;;;;;;4987337;28;20057;-75
2022/10/03 14:03:24;;;;;;;5.40;2.03;;;;;;;;;;4986290;28;20513;-73
2022/10/03 14:06:27;;;;;;;6.90;2.30;;;;;;;;;;4990435;28;20046;-76
2022/10/03 14:09:15;;;;;;;6.30;2.58;;;;;;;;;;4960122;28;20109;-75
2022/10/03 14:11:59;;;;;;;7.53;2.58;;;;;;;;;;4985627;28;20129;-75
2022/10/03 14:14:51;;;;;;;7.35;2.45;;;;;;;;;;4969392;28;20049;-75
2022/10/03 14:17:23;;;;;;;3.88;2.65;;;;;;;;;;4973231;28;20119;-75
2022/10/03 14:20:10;;;;;;;6.13;2.20;;;;;;;;;;4983787;28;20054;-74
2022/10/03 14:22:53;;;;;;;4.15;2.10;;;;;;;;;;4955713;28;20076;-75
2022/10/03 14:25:31;;;;;;;8.25;3.00;;;;;;;;;;4984123;28;20980;-74
2022/10/03 14:28:26;;;;;;;6.40;3.08;;;;;;;;;;4986766;28;20042;-75
2022/10/03 14:31:05;;;;;;;5.10;2.42;;;;;;;;;;4967484;28;20140;-75
2022/10/03 14:33:33;;;;;;;4.20;2.70;;;;;;;;;;4969144;28;20574;-75
2022/10/03 14:36:23;;;;;;;10.02;2.42;;;;;;;;;;4982362;28;20046;-75
2022/10/03 14:39:21;;;;;;;6.38;2.20;;;;;;;;;;4972442;28;20053;-75
2022/10/03 14:41:46;;;;;;;11.57;2.75;;;;;;;;;;4975410;28;20046;-75
2022/10/03 14:44:20;;;;;;;4.63;2.50;;;;;;;;;;4968973;28;20050;-75
2022/10/03 14:46:59;;;;;;;7.55;2.90;;;;;;;;;;4992745;28;20411;-74
2022/10/03 14:49:31;;;;;;;5.63;2.47;;;;;;;;;;4984033;28;20054;-74
2022/10/03 14:52:24;;;;;;;5.55;2.28;;;;;;;;;;4998266;28;21232;-74
2022/10/03 14:54:53;;;;;;;4.53;2.13;;;;;;;;;;4927182;28;20069;-75
2022/10/03 14:57:33;;;;;;;8.02;2.10;;;;;;;;;;4987036;28;20131;-74
2022/10/03 14:59:59;;;;;;;3.95;1.80;;;;;;;;;;4993012;28;20046;-74
2022/10/03 15:02:37;;;;;;;5.85;1.90;;;;;;;;;;4988819;28;20096;-74
2022/10/03 15:05:13;;;;;;;4.13;1.88;;;;;;;;;;4966478;28;20051;-74
2022/10/03 15:07:42;;;;;;;6.03;2.35;;;;;;;;;;4994094;28;20094;-74
2022/10/03 15:10:35;;;;;;;7.00;2.17;;;;;;;;;;4982429;28;20054;-74
2022/10/03 15:13:08;;;;;;;11.25;2.25;;;;;;;;;;4972709;28;20112;-74
2022/10/03 15:15:38;;;;;;;5.80;1.98;;;;;;;;;;4983571;28;20038;-74
2022/10/03 15:18:06;;;;;;;9.77;2.15;;;;;;;;;;4982817;28;20064;-74
2022/10/03 15:20:40;;;;;;;3.42;1.65;;;;;;;;;;4983668;28;20042;-74
2022/10/03 15:23:16;;;;;;;7.53;1.80;;;;;;;;;;4989486;28;20053;-75
2022/10/03 15:25:42;;;;;;;6.40;2.20;;;;;;;;;;4979921;28;20051;-74
2022/10/03 15:28:15;;;;;;;6.50;2.20;;;;;;;;;;4982740;28;20050;-74
2022/10/03 15:30:42;;;;;;;5.10;1.75;;;;;;;;;;4989944;28;20081;-74
2022/10/03 15:33:10;;;;;;;5.88;2.15;;;;;;;;;;4987945;28;20069;-73
2022/10/03 15:35:40;;;;;;;5.68;2.03;;;;;;;;;;4983394;28;20093;-75
2022/10/03 15:38:14;;;;;;;8.98;2.03;;;;;;;;;;4968131;28;20050;-74
2022/10/03 15:40:53;;;;;;;5.30;2.53;;;;;;;;;;4983866;28;20054;-75
2022/10/03 15:43:45;;;;;;;7.47;3.13;;;;;;;;;;4985919;28;20046;-73
2022/10/03 15:46:21;;;;;;;3.78;2.05;;;;;;;;;;4975545;28;20064;-74
2022/10/03 15:48:52;;;;;;;4.95;2.28;;;;;;;;;;4982607;28;20042;-73
2022/10/03 15:51:22;;;;;;;7.38;2.25;;;;;;;;;;4955901;28;20692;-75
2022/10/03 15:53:50;;;;;;;8.77;2.25;;;;;;;;;;4984193;28;20046;-74
2022/10/03 15:56:30;;;;;;;5.85;2.00;;;;;;;;;;4982508;28;20129;-73
2022/10/03 15:59:04;;;;;;;8.38;1.98;;;;;;;;;;4972159;28;20153;-74
2022/10/03 16:01:40;;;;;;;4.63;1.90;;;;;;;;;;4966277;28;20045;-74
2022/10/03 16:04:32;;;;;;;3.60;1.80;;;;;;;;;;4966894;28;20048;-74
2022/10/03 16:07:15;;;;;;;4.80;2.00;;;;;;;;;;4988894;28;20042;-74
2022/10/03 16:10:03;;;;;;;4.88;1.98;;;;;;;;;;4990609;28;20046;-75
2022/10/03 16:12:59;;;;;;;6.25;2.40;;;;;;;;;;4972216;28;20061;-73
2022/10/03 16:15:43;;;;;;;6.18;2.30;;;;;;;;;;4978242;28;20050;-75
2022/10/03 16:18:29;;;;;;;5.55;2.78;;;;;;;;;;4980580;28;20058;-74
2022/10/03 16:21:00;;;;;;;8.68;2.85;;;;;;;;;;4954531;28;20046;-74
2022/10/03 16:23:47;;;;;;;8.77;2.90;;;;;;;;;;4978886;28;20056;-74
2022/10/03 16:26:25;;;;;;;7.20;2.53;;;;;;;;;;4983304;28;20062;-72
2022/10/03 16:29:11;;;;;;;5.38;2.00;;;;;;;;;;4983958;28;20050;-77
2022/10/03 16:31:49;;;;;;;5.43;2.42;;;;;;;;;;4984268;28;20043;-71
2022/10/03 16:34:17;;;;;;;6.88;2.63;;;;;;;;;;4980267;28;20050;-72